createdAt,value
2022-08-27T00:01:18.163Z,14.90
2022-08-27T00:03:45.055Z,14.50
2022-08-27T00:06:17.016Z,11.00
2022-08-27T00:08:45.195Z,12.40
2022-08-27T00:11:12.410Z,12.40
2022-08-27T00:13:39.643Z,13.20
2022-08-27T00:16:08.972Z,12.00
2022-08-27T00:18:36.290Z,13.00
2022-08-27T00:21:04.411Z,14.00
2022-08-27T00:23:34.074Z,18.60
2022-08-27T00:26:00.648Z,17.80
2022-08-27T00:28:28.383Z,16.20
2022-08-27T00:30:55.524Z,16.00
2022-08-27T00:33:22.787Z,15.80
2022-08-27T00:35:50.144Z,13.00
2022-08-27T00:38:17.739Z,14.20
2022-08-27T00:40:45.067Z,16.00
2022-08-27T00:43:11.888Z,18.30
2022-08-27T00:45:42.748Z,14.90
2022-08-27T00:48:14.601Z,18.00
2022-08-27T00:50:51.791Z,16.20
2022-08-27T00:53:22.633Z,11.30
2022-08-27T00:55:55.239Z,14.40
2022-08-27T00:58:36.594Z,15.20
2022-08-27T01:01:05.934Z,13.60
2022-08-27T01:03:33.892Z,16.30
2022-08-27T01:06:02.339Z,12.80
2022-08-27T01:08:35.506Z,14.30
2022-08-27T01:11:02.170Z,13.10
2022-08-27T01:13:59.259Z,11.50
2022-08-27T01:16:23.570Z,10.80
2022-08-27T01:18:50.862Z,13.60
2022-08-27T01:21:35.540Z,14.00
2022-08-27T01:24:29.727Z,13.80
2022-08-27T01:26:58.940Z,15.50
2022-08-27T01:29:26.257Z,12.20
2022-08-27T01:31:52.819Z,14.80
2022-08-27T01:34:19.348Z,15.30
2022-08-27T01:36:45.898Z,13.70
2022-08-27T01:39:12.853Z,16.50
2022-08-27T01:41:39.862Z,15.40
2022-08-27T01:44:06.257Z,14.40
2022-08-27T01:46:32.720Z,18.10
2022-08-27T01:48:59.319Z,14.00
2022-08-27T01:51:25.646Z,18.30
2022-08-27T01:53:52.461Z,15.40
2022-08-27T01:56:19.343Z,13.40
2022-08-27T01:58:45.858Z,13.10
2022-08-27T02:01:16.226Z,14.00
2022-08-27T02:03:44.018Z,14.30
2022-08-27T02:06:11.753Z,14.80
2022-08-27T02:08:39.237Z,15.70
2022-08-27T02:11:07.752Z,15.60
2022-08-27T02:13:34.703Z,16.20
2022-08-27T02:16:01.235Z,13.30
2022-08-27T02:18:27.684Z,11.90
2022-08-27T02:20:54.228Z,15.80
2022-08-27T02:23:21.234Z,13.50
2022-08-27T02:25:47.823Z,15.80
2022-08-27T02:28:14.404Z,13.00
2022-08-27T02:30:40.935Z,17.10
2022-08-27T02:33:07.351Z,15.90
2022-08-27T02:35:38.316Z,16.20
2022-08-27T02:38:05.779Z,18.80
2022-08-27T02:40:32.828Z,16.60
2022-08-27T02:42:59.347Z,16.20
2022-08-27T02:45:25.815Z,19.70
2022-08-27T02:47:53.349Z,16.30
2022-08-27T02:50:19.874Z,13.90
2022-08-27T02:52:46.951Z,13.70
2022-08-27T02:55:13.847Z,12.20
2022-08-27T02:57:40.369Z,13.60
2022-08-27T03:00:11.535Z,16.80
2022-08-27T03:02:38.480Z,15.80
2022-08-27T03:05:07.160Z,16.40
2022-08-27T03:07:33.803Z,18.10
2022-08-27T03:10:00.271Z,17.80
2022-08-27T03:12:26.825Z,17.40
2022-08-27T03:14:53.254Z,17.40
2022-08-27T03:17:38.398Z,19.90
2022-08-27T03:20:06.626Z,15.80
2022-08-27T03:22:33.045Z,17.50
2022-08-27T03:25:01.941Z,14.50
2022-08-27T03:27:28.318Z,13.50
2022-08-27T03:29:54.801Z,17.40
2022-08-27T03:32:21.374Z,16.80
2022-08-27T03:34:48.053Z,19.10
2022-08-27T03:37:14.444Z,12.60
2022-08-27T03:39:40.873Z,16.30
2022-08-27T03:42:07.447Z,21.10
2022-08-27T03:44:34.505Z,15.50
2022-08-27T03:47:01.049Z,14.20
2022-08-27T03:49:27.942Z,15.20
2022-08-27T03:51:54.859Z,15.20
2022-08-27T03:54:21.254Z,16.10
2022-08-27T03:56:48.351Z,16.50
2022-08-27T03:59:15.282Z,15.10
2022-08-27T04:01:43.230Z,14.50
2022-08-27T04:04:10.190Z,18.20
2022-08-27T04:06:36.541Z,16.50
2022-08-27T04:09:04.498Z,19.50
2022-08-27T04:11:33.915Z,14.60
2022-08-27T04:14:04.539Z,20.10
2022-08-27T04:16:44.899Z,14.30
2022-08-27T04:19:12.359Z,18.60
2022-08-27T04:21:42.413Z,20.60
2022-08-27T04:24:10.650Z,17.20
2022-08-27T04:26:40.356Z,18.50
2022-08-27T04:29:06.899Z,17.70
2022-08-27T04:31:34.803Z,17.30
2022-08-27T04:34:01.520Z,14.80
2022-08-27T04:36:27.874Z,15.60
2022-08-27T04:38:54.398Z,16.90
2022-08-27T04:41:21.773Z,18.20
2022-08-27T04:43:51.749Z,18.00
2022-08-27T04:46:28.319Z,16.20
2022-08-27T04:48:56.788Z,15.60
2022-08-27T04:51:24.640Z,27.10
2022-08-27T04:53:51.868Z,34.30
2022-08-27T04:56:21.720Z,23.80
2022-08-27T04:58:50.139Z,17.00
2022-08-27T05:01:25.353Z,18.50
2022-08-27T05:03:53.140Z,19.60
2022-08-27T05:06:20.263Z,16.70
2022-08-27T05:08:49.475Z,18.40
2022-08-27T05:11:17.970Z,16.70
2022-08-27T05:13:45.614Z,22.00
2022-08-27T05:16:20.210Z,19.70
2022-08-27T05:18:49.524Z,23.10
2022-08-27T05:21:22.449Z,18.80
2022-08-27T05:23:50.222Z,17.60
2022-08-27T05:26:16.656Z,18.90
2022-08-27T05:28:43.635Z,18.30
2022-08-27T05:31:12.607Z,17.70
2022-08-27T05:33:41.517Z,20.40
2022-08-27T05:36:17.824Z,21.40
2022-08-27T05:38:44.162Z,16.50
2022-08-27T05:41:16.685Z,15.90
2022-08-27T05:43:49.125Z,19.60
2022-08-27T05:46:19.703Z,15.40
2022-08-27T05:48:47.281Z,21.40
2022-08-27T05:51:25.963Z,16.60
2022-08-27T05:54:08.596Z,15.20
2022-08-27T05:56:37.667Z,18.30
2022-08-27T05:59:24.259Z,19.10
2022-08-27T06:01:52.697Z,20.60
2022-08-27T06:04:20.846Z,16.20
2022-08-27T06:06:48.594Z,17.50
2022-08-27T06:09:18.394Z,17.50
2022-08-27T06:11:45.823Z,18.00
2022-08-27T06:14:12.206Z,19.60
2022-08-27T06:16:39.934Z,32.80
2022-08-27T06:19:08.388Z,16.40
2022-08-27T06:21:34.950Z,17.00
2022-08-27T06:24:01.782Z,18.20
2022-08-27T06:26:28.825Z,18.10
2022-08-27T06:28:55.326Z,15.50
2022-08-27T06:31:26.700Z,18.30
2022-08-27T06:34:03.070Z,21.60
2022-08-27T06:36:40.410Z,17.50
2022-08-27T06:39:08.392Z,18.40
2022-08-27T06:41:35.200Z,18.20
2022-08-27T06:44:02.025Z,21.10
2022-08-27T06:46:29.328Z,19.80
2022-08-27T06:48:58.784Z,16.20
2022-08-27T06:51:28.115Z,14.00
2022-08-27T06:53:57.404Z,16.00
2022-08-27T06:56:24.263Z,13.00
2022-08-27T06:58:56.298Z,16.80
2022-08-27T07:01:30.259Z,14.90
2022-08-27T07:04:03.309Z,14.10
2022-08-27T07:06:31.174Z,15.80
2022-08-27T07:08:58.523Z,18.30
2022-08-27T07:11:29.071Z,14.00
2022-08-27T07:13:55.680Z,16.10
2022-08-27T07:16:24.055Z,13.50
2022-08-27T07:18:52.789Z,13.40
2022-08-27T07:21:20.761Z,12.50
2022-08-27T07:23:49.848Z,14.50
2022-08-27T07:26:17.220Z,14.00
2022-08-27T07:28:44.293Z,12.60
2022-08-27T07:31:13.094Z,12.10
2022-08-27T07:33:40.433Z,16.50
2022-08-27T07:36:12.876Z,13.80
2022-08-27T07:38:39.764Z,10.60
2022-08-27T07:41:10.843Z,12.80
2022-08-27T07:43:57.228Z,13.30
2022-08-27T07:46:24.431Z,12.90
2022-08-27T07:48:51.943Z,13.50
2022-08-27T07:51:21.273Z,12.90
2022-08-27T07:53:47.860Z,17.60
2022-08-27T07:56:15.262Z,15.20
2022-08-27T07:58:42.546Z,15.60
2022-08-27T08:01:10.286Z,12.50
2022-08-27T08:03:36.915Z,14.10
2022-08-27T08:06:13.166Z,14.40
2022-08-27T08:08:41.063Z,11.50
2022-08-27T08:11:13.526Z,14.80
2022-08-27T08:13:40.758Z,15.80
2022-08-27T08:16:07.617Z,15.70
2022-08-27T08:18:36.815Z,11.90
2022-08-27T08:21:06.776Z,14.80
2022-08-27T08:23:34.131Z,13.80
2022-08-27T08:26:00.918Z,12.10
2022-08-27T08:28:29.535Z,13.50
2022-08-27T08:30:56.810Z,16.00
2022-08-27T08:33:23.463Z,12.70
2022-08-27T08:35:50.393Z,17.80
2022-08-27T08:38:19.787Z,15.20
2022-08-27T08:40:49.981Z,14.20
2022-08-27T08:43:30.850Z,12.30
2022-08-27T08:46:21.447Z,11.00
2022-08-27T08:48:54.802Z,14.80
2022-08-27T08:51:32.289Z,13.40
2022-08-27T08:54:05.085Z,11.00
2022-08-27T08:56:43.121Z,9.20
2022-08-27T08:59:33.017Z,11.80
2022-08-27T09:01:59.779Z,11.60
2022-08-27T09:04:27.605Z,14.60
2022-08-27T09:07:00.361Z,13.10
2022-08-27T09:10:04.304Z,11.50
2022-08-27T09:12:32.601Z,12.00
2022-08-27T09:15:07.591Z,11.30
2022-08-27T09:17:41.351Z,13.60
2022-08-27T09:20:13.029Z,11.40
2022-08-27T09:22:55.330Z,11.10
2022-08-27T09:25:33.342Z,12.10
2022-08-27T09:28:05.505Z,10.30
2022-08-27T09:30:42.087Z,12.00
2022-08-27T09:33:08.555Z,10.30
2022-08-27T09:35:44.268Z,14.20
2022-08-27T09:38:18.996Z,9.70
2022-08-27T09:40:49.964Z,9.80
2022-08-27T09:43:16.378Z,11.80
2022-08-27T09:45:50.088Z,10.60
2022-08-27T09:48:30.390Z,9.50
2022-08-27T09:51:02.068Z,11.90
2022-08-27T09:53:38.510Z,10.90
2022-08-27T09:56:09.309Z,9.10
2022-08-27T09:59:02.152Z,12.00
2022-08-27T10:01:32.961Z,13.60
2022-08-27T10:04:04.200Z,11.40
2022-08-27T10:06:32.164Z,11.80
2022-08-27T10:09:16.004Z,11.00
2022-08-27T10:11:57.763Z,14.40
2022-08-27T10:14:31.519Z,13.60
2022-08-27T10:17:01.336Z,11.20
2022-08-27T10:19:40.177Z,13.80
2022-08-27T10:22:16.346Z,8.50
2022-08-27T10:24:58.611Z,13.50
2022-08-27T10:27:53.522Z,9.50
2022-08-27T10:30:28.521Z,11.10
2022-08-27T10:33:21.446Z,12.50
2022-08-27T10:36:26.239Z,9.90
2022-08-27T10:38:56.027Z,11.40
2022-08-27T10:41:28.586Z,8.20
2022-08-27T10:44:32.434Z,12.00
2022-08-27T10:47:39.743Z,9.40
2022-08-27T10:50:41.749Z,8.70
2022-08-27T10:53:17.235Z,10.40
2022-08-27T10:55:51.062Z,9.50
2022-08-27T10:58:32.889Z,11.30
2022-08-27T11:01:18.295Z,8.10
2022-08-27T11:03:58.702Z,9.90
2022-08-27T11:06:50.734Z,7.10
2022-08-27T11:09:22.016Z,7.90
2022-08-27T11:12:13.981Z,9.40
2022-08-27T11:14:50.192Z,8.80
2022-08-27T11:17:40.653Z,8.60
2022-08-27T11:20:13.358Z,9.40
2022-08-27T11:22:55.944Z,10.20
2022-08-27T11:25:22.452Z,7.80
2022-08-27T11:27:53.036Z,7.10
2022-08-27T11:30:28.446Z,11.50
2022-08-27T11:33:13.736Z,6.50
2022-08-27T11:36:09.212Z,10.40
2022-08-27T11:38:58.217Z,13.40
2022-08-27T11:41:27.739Z,6.10
2022-08-27T11:43:54.839Z,8.20
2022-08-27T11:46:25.136Z,7.70
2022-08-27T11:49:01.680Z,6.70
2022-08-27T11:51:37.862Z,10.40
2022-08-27T11:54:22.655Z,8.70
2022-08-27T11:56:49.081Z,6.80
2022-08-27T11:59:21.365Z,11.30
2022-08-27T12:01:49.617Z,6.80
2022-08-27T12:04:25.216Z,8.50
2022-08-27T12:07:01.002Z,11.20
2022-08-27T12:09:29.157Z,8.10
2022-08-27T12:12:36.778Z,24.70
2022-08-27T12:15:22.140Z,8.70
2022-08-27T12:18:09.211Z,9.70
2022-08-27T12:20:56.824Z,9.90
2022-08-27T12:23:40.599Z,8.00
2022-08-27T12:26:28.194Z,12.30
2022-08-27T12:29:30.536Z,8.70
2022-08-27T12:32:29.341Z,9.50
2022-08-27T12:35:26.523Z,6.40
2022-08-27T12:38:03.248Z,7.40
2022-08-27T12:40:45.872Z,8.10
2022-08-27T12:43:25.530Z,8.40
2022-08-27T12:45:56.515Z,6.80
2022-08-27T12:48:27.445Z,9.40
2022-08-27T12:51:01.130Z,6.50
2022-08-27T12:53:52.119Z,9.10
2022-08-27T12:56:37.007Z,8.40
2022-08-27T12:59:34.440Z,10.30
2022-08-27T13:02:40.226Z,8.90
2022-08-27T13:05:10.048Z,7.70
2022-08-27T13:07:45.576Z,11.10
2022-08-27T13:10:13.827Z,8.10
2022-08-27T13:12:42.257Z,9.70
2022-08-27T13:15:11.078Z,10.80
2022-08-27T13:17:44.084Z,8.00
2022-08-27T13:20:25.176Z,11.50
2022-08-27T13:22:53.386Z,9.20
2022-08-27T13:25:28.174Z,10.20
2022-08-27T13:28:13.673Z,9.50
2022-08-27T13:30:44.415Z,8.30
2022-08-27T13:33:18.902Z,12.90
2022-08-27T13:35:46.911Z,8.00
2022-08-27T13:38:15.019Z,9.20
2022-08-27T13:40:50.587Z,9.80
2022-08-27T13:43:17.890Z,10.30
2022-08-27T13:45:49.530Z,11.50
2022-08-27T13:48:18.923Z,9.50
2022-08-27T13:50:51.473Z,10.50
2022-08-27T13:53:40.417Z,10.30
2022-08-27T13:56:07.101Z,7.10
2022-08-27T13:58:34.494Z,11.40
2022-08-27T14:01:13.836Z,9.80
2022-08-27T14:04:09.306Z,8.00
2022-08-27T14:06:45.807Z,8.80
2022-08-27T14:09:22.112Z,8.50
2022-08-27T14:11:57.739Z,12.80
2022-08-27T14:14:24.651Z,11.80
2022-08-27T14:17:02.417Z,9.50
2022-08-27T14:19:36.877Z,10.50
2022-08-27T14:22:03.892Z,9.70
2022-08-27T14:24:30.571Z,9.20
2022-08-27T14:27:05.815Z,11.50
2022-08-27T14:29:32.243Z,11.00
2022-08-27T14:31:58.885Z,10.90
2022-08-27T14:34:25.333Z,10.90
2022-08-27T14:36:54.825Z,8.90
2022-08-27T14:39:22.002Z,9.20
2022-08-27T14:41:53.642Z,14.20
2022-08-27T14:44:21.603Z,7.90
2022-08-27T14:46:48.510Z,8.80
2022-08-27T14:49:24.348Z,10.90
2022-08-27T14:51:50.959Z,9.20
2022-08-27T14:54:17.630Z,8.00
2022-08-27T14:56:44.229Z,8.90
2022-08-27T14:59:10.955Z,7.40
2022-08-27T15:01:38.289Z,10.30
2022-08-27T15:04:05.756Z,12.50
2022-08-27T15:06:32.909Z,13.90
2022-08-27T15:09:00.271Z,10.60
2022-08-27T15:11:31.216Z,10.20
2022-08-27T15:13:59.577Z,9.90
2022-08-27T15:16:37.806Z,9.10
2022-08-27T15:19:06.617Z,10.00
2022-08-27T15:21:35.270Z,8.80
2022-08-27T15:24:05.931Z,9.70
2022-08-27T15:26:34.193Z,8.40
2022-08-27T15:29:05.580Z,8.70
2022-08-27T15:31:33.436Z,10.90
2022-08-27T15:34:00.433Z,9.60
2022-08-27T15:36:26.919Z,7.50
2022-08-27T15:38:54.553Z,8.50
2022-08-27T15:41:24.262Z,9.10
2022-08-27T15:43:52.607Z,10.90
2022-08-27T15:46:19.227Z,12.30
2022-08-27T15:48:45.802Z,12.60
2022-08-27T15:51:13.161Z,8.10
2022-08-27T15:53:41.340Z,9.50
2022-08-27T15:56:09.006Z,10.30
2022-08-27T15:58:36.985Z,11.10
2022-08-27T16:01:13.339Z,8.10
2022-08-27T16:03:45.605Z,9.60
2022-08-27T16:06:17.501Z,10.40
2022-08-27T16:08:46.256Z,6.90
2022-08-27T16:11:12.998Z,10.30
2022-08-27T16:13:41.479Z,9.20
2022-08-27T16:16:08.727Z,8.00
2022-08-27T16:18:36.034Z,7.70
2022-08-27T16:21:03.594Z,8.90
2022-08-27T16:23:31.262Z,14.80
2022-08-27T16:25:58.191Z,12.70
2022-08-27T16:28:25.126Z,10.00
2022-08-27T16:30:53.876Z,7.90
2022-08-27T16:33:20.951Z,12.10
2022-08-27T16:35:47.688Z,9.20
2022-08-27T16:38:14.170Z,9.50
2022-08-27T16:40:46.280Z,6.10
2022-08-27T16:43:20.545Z,7.40
2022-08-27T16:45:48.976Z,8.60
2022-08-27T16:48:35.305Z,9.70
2022-08-27T16:51:03.669Z,8.70
2022-08-27T16:53:34.039Z,11.60
2022-08-27T16:56:01.156Z,9.10
2022-08-27T16:58:29.997Z,11.60
2022-08-27T17:01:01.053Z,11.10
2022-08-27T17:03:29.986Z,12.30
2022-08-27T17:05:58.144Z,11.20
2022-08-27T17:08:28.282Z,12.10
2022-08-27T17:10:55.983Z,11.70
2022-08-27T17:13:28.238Z,17.60
2022-08-27T17:15:56.017Z,11.90
2022-08-27T17:18:27.157Z,7.50
2022-08-27T17:20:55.305Z,10.90
2022-08-27T17:23:33.986Z,8.00
2022-08-27T17:26:03.022Z,19.90
2022-08-27T17:28:29.423Z,10.00
2022-08-27T17:30:57.072Z,12.40
2022-08-27T17:33:39.705Z,10.90
2022-08-27T17:36:08.306Z,12.60
2022-08-27T17:38:38.132Z,11.80
2022-08-27T17:41:31.710Z,14.20
2022-08-27T17:44:04.873Z,15.80
2022-08-27T17:46:31.893Z,15.10
2022-08-27T17:48:59.084Z,16.50
2022-08-27T17:51:27.259Z,15.00
2022-08-27T17:54:00.891Z,17.50
2022-08-27T17:56:28.662Z,13.70
2022-08-27T17:58:55.724Z,8.80
2022-08-27T18:01:28.686Z,7.90
2022-08-27T18:03:56.834Z,8.50
2022-08-27T18:06:24.995Z,11.10
2022-08-27T18:08:51.684Z,10.60
2022-08-27T18:11:19.023Z,19.70
2022-08-27T18:13:48.914Z,10.50
2022-08-27T18:16:15.358Z,11.90
2022-08-27T18:18:41.857Z,23.00
2022-08-27T18:21:08.643Z,24.80
2022-08-27T18:23:36.902Z,26.90
2022-08-27T18:26:07.490Z,28.10
2022-08-27T18:28:34.167Z,25.90
2022-08-27T18:31:05.600Z,28.60
2022-08-27T18:33:33.480Z,28.00
2022-08-27T18:36:00.019Z,26.80
2022-08-27T18:38:26.794Z,26.90
2022-08-27T18:40:54.258Z,24.10
2022-08-27T18:43:28.965Z,26.60
2022-08-27T18:45:55.360Z,27.50
2022-08-27T18:48:22.661Z,26.60
2022-08-27T18:50:57.910Z,24.00
2022-08-27T18:53:26.344Z,25.60
2022-08-27T18:55:53.036Z,26.50
2022-08-27T18:58:19.999Z,26.10
2022-08-27T19:00:51.342Z,22.90
2022-08-27T19:03:26.246Z,20.30
2022-08-27T19:05:54.876Z,17.80
2022-08-27T19:08:22.069Z,20.20
2022-08-27T19:10:48.734Z,16.30
2022-08-27T19:13:15.091Z,19.40
2022-08-27T19:15:45.795Z,15.60
2022-08-27T19:18:12.596Z,15.60
2022-08-27T19:20:39.388Z,19.40
2022-08-27T19:23:05.832Z,15.90
2022-08-27T19:25:32.495Z,22.80
2022-08-27T19:27:59.007Z,22.20
2022-08-27T19:30:25.547Z,21.40
2022-08-27T19:32:54.759Z,21.90
2022-08-27T19:35:23.893Z,22.00
2022-08-27T19:37:52.804Z,20.90
2022-08-27T19:40:21.528Z,19.40
2022-08-27T19:42:48.752Z,21.70
2022-08-27T19:45:15.318Z,21.00
2022-08-27T19:47:42.046Z,18.90
2022-08-27T19:50:09.084Z,19.40
2022-08-27T19:52:35.552Z,17.80
2022-08-27T19:55:17.341Z,22.00
2022-08-27T19:57:44.881Z,24.20
2022-08-27T20:00:14.897Z,26.30
2022-08-27T20:02:41.313Z,22.40
2022-08-27T20:05:17.891Z,21.00
2022-08-27T20:07:50.803Z,21.90
2022-08-27T20:10:19.907Z,22.80
2022-08-27T20:12:49.489Z,21.20
2022-08-27T20:15:16.508Z,28.00
2022-08-27T20:17:43.685Z,25.60
2022-08-27T20:20:10.508Z,22.40
2022-08-27T20:22:39.118Z,20.90
2022-08-27T20:25:06.591Z,26.50
2022-08-27T20:27:34.277Z,24.60
2022-08-27T20:30:01.508Z,21.50
2022-08-27T20:32:30.023Z,18.70
2022-08-27T20:34:58.188Z,17.50
2022-08-27T20:37:24.686Z,17.70
2022-08-27T20:39:51.847Z,19.60
2022-08-27T20:42:19.349Z,18.10
2022-08-27T20:44:46.466Z,19.80
2022-08-27T20:47:14.009Z,17.40
2022-08-27T20:49:44.028Z,17.30
2022-08-27T20:52:12.342Z,18.70
2022-08-27T20:54:39.254Z,17.80
2022-08-27T20:57:06.096Z,18.00
2022-08-27T20:59:51.167Z,19.60
2022-08-27T21:02:24.000Z,17.10
2022-08-27T21:04:51.615Z,18.60
2022-08-27T21:07:19.453Z,19.80
2022-08-27T21:09:56.237Z,19.80
2022-08-27T21:12:26.108Z,19.90
2022-08-27T21:14:56.067Z,18.90
2022-08-27T21:17:26.507Z,18.90
2022-08-27T21:19:53.447Z,17.90
2022-08-27T21:22:22.096Z,16.80
2022-08-27T21:24:48.973Z,15.90
2022-08-27T21:27:17.887Z,17.80
2022-08-27T21:29:44.789Z,16.80
2022-08-27T21:32:12.997Z,16.60
2022-08-27T21:34:41.179Z,21.50
2022-08-27T21:37:08.725Z,21.30
2022-08-27T21:39:38.731Z,21.00
2022-08-27T21:42:06.977Z,16.50
2022-08-27T21:44:34.654Z,15.70
2022-08-27T21:47:02.891Z,16.90
2022-08-27T21:49:31.802Z,19.00
2022-08-27T21:52:05.251Z,16.50
2022-08-27T21:54:35.784Z,19.10
2022-08-27T21:57:04.934Z,18.00
2022-08-27T21:59:37.681Z,17.30
2022-08-27T22:02:18.094Z,14.60
2022-08-27T22:04:50.713Z,17.30
2022-08-27T22:07:17.863Z,18.70
2022-08-27T22:09:44.829Z,14.20
2022-08-27T22:12:11.546Z,15.20
2022-08-27T22:14:40.474Z,14.70
2022-08-27T22:17:06.822Z,16.20
2022-08-27T22:19:33.366Z,17.70
2022-08-27T22:21:59.817Z,14.50
2022-08-27T22:24:26.220Z,16.30
2022-08-27T22:26:52.761Z,15.20
2022-08-27T22:29:19.287Z,15.40
2022-08-27T22:31:45.800Z,17.00
2022-08-27T22:34:14.998Z,15.80
2022-08-27T22:36:42.382Z,17.10
2022-08-27T22:39:08.939Z,15.70
2022-08-27T22:41:35.402Z,19.20
2022-08-27T22:44:02.336Z,18.40
2022-08-27T22:46:28.767Z,17.70
2022-08-27T22:48:55.265Z,18.20
2022-08-27T22:51:21.855Z,16.30
2022-08-27T22:53:48.345Z,22.30
2022-08-27T22:56:14.784Z,16.20
2022-08-27T22:58:45.813Z,16.90
2022-08-27T23:01:17.377Z,17.40
2022-08-27T23:03:44.019Z,17.30
2022-08-27T23:06:10.573Z,15.70
2022-08-27T23:08:37.288Z,18.10
2022-08-27T23:11:03.887Z,17.70
2022-08-27T23:13:31.977Z,17.80
2022-08-27T23:16:02.505Z,18.70
2022-08-27T23:18:29.318Z,20.90
2022-08-27T23:20:55.780Z,18.00
2022-08-27T23:23:22.192Z,23.00
2022-08-27T23:26:09.594Z,20.60
2022-08-27T23:28:36.049Z,16.90
2022-08-27T23:31:02.734Z,20.70
2022-08-27T23:33:29.223Z,17.00
2022-08-27T23:35:55.717Z,16.10
2022-08-27T23:38:22.368Z,18.10
2022-08-27T23:40:49.798Z,18.00
2022-08-27T23:43:17.637Z,17.60
2022-08-27T23:45:44.199Z,17.00
2022-08-27T23:48:12.365Z,20.80
2022-08-27T23:50:40.080Z,18.70
2022-08-27T23:53:06.942Z,17.30
2022-08-27T23:55:34.055Z,17.40
2022-08-27T23:58:01.258Z,18.10
